sensor_id;sensor_type;location;lat;lon;timestamp;pressure;altitude;pressure_sealevel;temperature;humidity
62779;BME280;48821;48.796;2.396;2023-03-18T00:00:20;100756.56;;;13.65;69.42
62779;BME280;48821;48.796;2.396;2023-03-18T00:01:31;100757.47;;;13.64;69.25
62779;BME280;48821;48.796;2.396;2023-03-18T00:02:42;100763.69;;;13.63;69.23
62779;BME280;48821;48.796;2.396;2023-03-18T00:03:54;100762.84;;;13.63;69.26
62779;BME280;48821;48.796;2.396;2023-03-18T00:05:08;100759.41;;;13.60;69.77
62779;BME280;48821;48.796;2.396;2023-03-18T00:06:20;100769.13;;;13.60;69.45
62779;BME280;48821;48.796;2.396;2023-03-18T00:07:32;100764.84;;;13.57;69.06
62779;BME280;48821;48.796;2.396;2023-03-18T00:08:45;100763.09;;;13.56;69.86
62779;BME280;48821;48.796;2.396;2023-03-18T00:09:57;100774.63;;;13.54;69.35
62779;BME280;48821;48.796;2.396;2023-03-18T00:11:10;100770.28;;;13.53;69.54
62779;BME280;48821;48.796;2.396;2023-03-18T00:12:22;100763.28;;;13.52;68.97
62779;BME280;48821;48.796;2.396;2023-03-18T00:13:34;100769.50;;;13.50;69.64
62779;BME280;48821;48.796;2.396;2023-03-18T00:14:46;100769.50;;;13.50;69.41
62779;BME280;48821;48.796;2.396;2023-03-18T00:16:03;100768.66;;;13.50;69.24
62779;BME280;48821;48.796;2.396;2023-03-18T00:17:15;100766.91;;;13.49;69.35
62779;BME280;48821;48.796;2.396;2023-03-18T00:18:28;100769.63;;;13.47;69.54
62779;BME280;48821;48.796;2.396;2023-03-18T00:19:38;100774.06;;;13.47;69.09
62779;BME280;48821;48.796;2.396;2023-03-18T00:20:50;100777.59;;;13.46;69.32
62779;BME280;48821;48.796;2.396;2023-03-18T00:22:02;100774.13;;;13.45;69.28
62779;BME280;48821;48.796;2.396;2023-03-18T00:23:14;100775.03;;;13.44;69.05
62779;BME280;48821;48.796;2.396;2023-03-18T00:24:26;100776.81;;;13.44;69.03
62779;BME280;48821;48.796;2.396;2023-03-18T00:25:38;100771.63;;;13.42;69.07
62779;BME280;48821;48.796;2.396;2023-03-18T00:26:50;100774.25;;;13.42;69.19
62779;BME280;48821;48.796;2.396;2023-03-18T00:28:04;100772.63;;;13.39;68.91
62779;BME280;48821;48.796;2.396;2023-03-18T00:29:15;100771.75;;;13.39;68.85
62779;BME280;48821;48.796;2.396;2023-03-18T00:30:27;100769.19;;;13.37;69.05
62779;BME280;48821;48.796;2.396;2023-03-18T00:31:39;100775.38;;;13.36;69.22
62779;BME280;48821;48.796;2.396;2023-03-18T00:32:50;100775.47;;;13.35;69.01
62779;BME280;48821;48.796;2.396;2023-03-18T00:34:01;100784.28;;;13.34;68.97
62779;BME280;48821;48.796;2.396;2023-03-18T00:35:13;100772.03;;;13.33;69.19
62779;BME280;48821;48.796;2.396;2023-03-18T00:36:25;100791.44;;;13.32;68.93
62779;BME280;48821;48.796;2.396;2023-03-18T00:37:37;100789.72;;;13.31;68.98
62779;BME280;48821;48.796;2.396;2023-03-18T00:38:47;100799.41;;;13.30;69.05
62779;BME280;48821;48.796;2.396;2023-03-18T00:40:03;100801.31;;;13.26;69.03
62779;BME280;48821;48.796;2.396;2023-03-18T00:41:16;100798.69;;;13.26;68.92
62779;BME280;48821;48.796;2.396;2023-03-18T00:42:28;100794.34;;;13.25;68.98
62779;BME280;48821;48.796;2.396;2023-03-18T00:43:47;100798.84;;;13.23;68.79
62779;BME280;48821;48.796;2.396;2023-03-18T00:45:08;100794.47;;;13.22;69.15
62779;BME280;48821;48.796;2.396;2023-03-18T00:46:29;100784.00;;;13.21;69.21
62779;BME280;48821;48.796;2.396;2023-03-18T00:47:40;100781.41;;;13.19;68.85
62779;BME280;48821;48.796;2.396;2023-03-18T00:48:56;100781.41;;;13.19;69.15
62779;BME280;48821;48.796;2.396;2023-03-18T00:50:09;100778.84;;;13.18;68.87
62779;BME280;48821;48.796;2.396;2023-03-18T00:51:22;100777.09;;;13.16;68.85
62779;BME280;48821;48.796;2.396;2023-03-18T00:52:34;100770.13;;;13.15;68.69
62779;BME280;48821;48.796;2.396;2023-03-18T00:53:48;100773.69;;;13.14;68.97
62779;BME280;48821;48.796;2.396;2023-03-18T00:55:03;100771.13;;;13.13;69.10
62779;BME280;48821;48.796;2.396;2023-03-18T00:56:15;100766.75;;;13.12;68.89
62779;BME280;48821;48.796;2.396;2023-03-18T00:57:28;100759.72;;;13.12;68.88
62779;BME280;48821;48.796;2.396;2023-03-18T00:58:39;100765.97;;;13.10;68.79
62779;BME280;48821;48.796;2.396;2023-03-18T00:59:50;100764.28;;;13.09;68.68
62779;BME280;48821;48.796;2.396;2023-03-18T01:01:03;100767.81;;;13.08;68.62
62779;BME280;48821;48.796;2.396;2023-03-18T01:02:14;100764.31;;;13.07;68.82
62779;BME280;48821;48.796;2.396;2023-03-18T01:03:25;100760.81;;;13.07;68.98
62779;BME280;48821;48.796;2.396;2023-03-18T01:04:36;100768.81;;;13.05;68.73
62779;BME280;48821;48.796;2.396;2023-03-18T01:05:48;100777.72;;;13.02;68.55
62779;BME280;48821;48.796;2.396;2023-03-18T01:07:01;100773.34;;;13.01;68.85
62779;BME280;48821;48.796;2.396;2023-03-18T01:08:12;100783.91;;;13.01;68.96
62779;BME280;48821;48.796;2.396;2023-03-18T01:09:24;100788.47;;;12.98;68.80
62779;BME280;48821;48.796;2.396;2023-03-18T01:10:36;100780.63;;;12.96;68.74
62779;BME280;48821;48.796;2.396;2023-03-18T01:11:48;100782.41;;;12.96;68.88
62779;BME280;48821;48.796;2.396;2023-03-18T01:12:59;100785.09;;;12.94;69.03
62779;BME280;48821;48.796;2.396;2023-03-18T01:14:11;100781.63;;;12.93;68.65
62779;BME280;48821;48.796;2.396;2023-03-18T01:15:23;100781.66;;;12.92;69.12
62779;BME280;48821;48.796;2.396;2023-03-18T01:16:35;100794.84;;;12.92;68.70
62779;BME280;48821;48.796;2.396;2023-03-18T01:17:49;100790.50;;;12.91;68.79
62779;BME280;48821;48.796;2.396;2023-03-18T01:19:00;100790.50;;;12.91;68.83
62779;BME280;48821;48.796;2.396;2023-03-18T01:20:15;100790.50;;;12.91;68.83
62779;BME280;48821;48.796;2.396;2023-03-18T01:21:28;100795.84;;;12.89;68.89
62779;BME280;48821;48.796;2.396;2023-03-18T01:22:40;100797.63;;;12.89;68.79
62779;BME280;48821;48.796;2.396;2023-03-18T01:23:52;100791.53;;;12.87;68.86
62779;BME280;48821;48.796;2.396;2023-03-18T01:25:04;100791.53;;;12.87;68.56
62779;BME280;48821;48.796;2.396;2023-03-18T01:26:15;100782.84;;;12.85;68.84
62779;BME280;48821;48.796;2.396;2023-03-18T01:27:27;100782.91;;;12.83;68.54
62779;BME280;48821;48.796;2.396;2023-03-18T01:28:39;100781.16;;;12.83;68.70
62779;BME280;48821;48.796;2.396;2023-03-18T01:29:51;100781.19;;;12.82;68.65
62779;BME280;48821;48.796;2.396;2023-03-18T01:31:03;100783.00;;;12.81;68.84
62779;BME280;48821;48.796;2.396;2023-03-18T01:32:15;100774.25;;;12.79;68.65
62779;BME280;48821;48.796;2.396;2023-03-18T01:33:28;100774.25;;;12.79;68.84
62779;BME280;48821;48.796;2.396;2023-03-18T01:34:39;100770.78;;;12.79;68.59
62779;BME280;48821;48.796;2.396;2023-03-18T01:35:55;100769.97;;;12.77;68.74
62779;BME280;48821;48.796;2.396;2023-03-18T01:37:08;100766.53;;;12.75;68.85
62779;BME280;48821;48.796;2.396;2023-03-18T01:38:19;100765.75;;;12.73;68.47
62779;BME280;48821;48.796;2.396;2023-03-18T01:39:30;100756.97;;;12.72;68.68
62779;BME280;48821;48.796;2.396;2023-03-18T01:40:40;100758.81;;;12.70;68.70
62779;BME280;48821;48.796;2.396;2023-03-18T01:41:51;100755.31;;;12.69;68.75
62779;BME280;48821;48.796;2.396;2023-03-18T01:43:12;100751.84;;;12.69;68.86
62779;BME280;48821;48.796;2.396;2023-03-18T01:44:23;100744.94;;;12.66;68.73
62779;BME280;48821;48.796;2.396;2023-03-18T01:45:35;100754.63;;;12.66;68.71
62779;BME280;48821;48.796;2.396;2023-03-18T01:46:48;100750.25;;;12.65;68.35
62779;BME280;48821;48.796;2.396;2023-03-18T01:48:00;100753.81;;;12.64;68.54
62779;BME280;48821;48.796;2.396;2023-03-18T01:49:22;100752.09;;;12.63;69.13
62779;BME280;48821;48.796;2.396;2023-03-18T01:50:36;100750.41;;;12.62;68.88
62779;BME280;48821;48.796;2.396;2023-03-18T01:52:10;100756.56;;;12.60;68.96
62779;BME280;48821;48.796;2.396;2023-03-18T01:53:22;100765.41;;;12.59;68.66
62779;BME280;48821;48.796;2.396;2023-03-18T01:54:39;100765.41;;;12.59;68.95
62779;BME280;48821;48.796;2.396;2023-03-18T01:55:50;100774.25;;;12.58;68.87
62779;BME280;48821;48.796;2.396;2023-03-18T01:57:02;100767.25;;;12.57;68.70
62779;BME280;48821;48.796;2.396;2023-03-18T01:58:21;100769.88;;;12.57;68.90
62779;BME280;48821;48.796;2.396;2023-03-18T01:59:35;100762.91;;;12.56;68.91
62779;BME280;48821;48.796;2.396;2023-03-18T02:00:51;100760.31;;;12.55;68.87
62779;BME280;48821;48.796;2.396;2023-03-18T02:02:06;100767.31;;;12.56;68.67
62779;BME280;48821;48.796;2.396;2023-03-18T02:03:20;100764.75;;;12.54;68.40
62779;BME280;48821;48.796;2.396;2023-03-18T02:04:38;100773.50;;;12.55;68.57
62779;BME280;48821;48.796;2.396;2023-03-18T02:05:50;100772.66;;;12.54;68.89
62779;BME280;48821;48.796;2.396;2023-03-18T02:07:02;100767.44;;;12.53;68.58
62779;BME280;48821;48.796;2.396;2023-03-18T02:08:12;100770.16;;;12.51;68.74
62779;BME280;48821;48.796;2.396;2023-03-18T02:09:23;100772.81;;;12.49;68.67
62779;BME280;48821;48.796;2.396;2023-03-18T02:10:36;100773.69;;;12.50;68.68
62779;BME280;48821;48.796;2.396;2023-03-18T02:11:47;100779.03;;;12.48;68.78
62779;BME280;48821;48.796;2.396;2023-03-18T02:13:09;100771.13;;;12.48;68.59
62779;BME280;48821;48.796;2.396;2023-03-18T02:14:22;100763.28;;;12.47;68.43
62779;BME280;48821;48.796;2.396;2023-03-18T02:15:35;100770.34;;;12.46;68.52
62779;BME280;48821;48.796;2.396;2023-03-18T02:16:56;100767.69;;;12.46;68.84
62779;BME280;48821;48.796;2.396;2023-03-18T02:18:18;100770.38;;;12.45;68.75
62779;BME280;48821;48.796;2.396;2023-03-18T02:19:39;100774.81;;;12.44;68.66
62779;BME280;48821;48.796;2.396;2023-03-18T02:21:06;100776.63;;;12.42;68.69
62779;BME280;48821;48.796;2.396;2023-03-18T02:22:29;100773.16;;;12.42;68.70
62779;BME280;48821;48.796;2.396;2023-03-18T02:24:03;100780.19;;;12.41;68.80
62779;BME280;48821;48.796;2.396;2023-03-18T02:28:02;100767.13;;;12.38;68.60
62779;BME280;48821;48.796;2.396;2023-03-18T02:29:14;100772.47;;;12.36;68.70
62779;BME280;48821;48.796;2.396;2023-03-18T02:30:34;100758.50;;;12.34;68.80
62779;BME280;48821;48.796;2.396;2023-03-18T02:31:47;100756.72;;;12.35;68.70
62779;BME280;48821;48.796;2.396;2023-03-18T02:32:59;100763.78;;;12.34;68.63
62779;BME280;48821;48.796;2.396;2023-03-18T02:34:11;100762.91;;;12.34;68.83
62779;BME280;48821;48.796;2.396;2023-03-18T02:35:23;100762.97;;;12.32;68.53
62779;BME280;48821;48.796;2.396;2023-03-18T02:36:34;100763.91;;;12.31;68.97
62779;BME280;48821;48.796;2.396;2023-03-18T02:37:48;100755.13;;;12.31;68.50
62779;BME280;48821;48.796;2.396;2023-03-18T02:38:58;100762.16;;;12.30;68.73
62779;BME280;48821;48.796;2.396;2023-03-18T02:40:17;100759.53;;;12.30;68.66
62779;BME280;48821;48.796;2.396;2023-03-18T02:41:32;100760.47;;;12.29;68.62
62779;BME280;48821;48.796;2.396;2023-03-18T02:42:45;100761.38;;;12.28;68.85
62779;BME280;48821;48.796;2.396;2023-03-18T02:43:59;100757.88;;;12.27;68.90
62779;BME280;48821;48.796;2.396;2023-03-18T02:45:25;100767.59;;;12.27;68.78
62779;BME280;48821;48.796;2.396;2023-03-18T02:46:52;100772.00;;;12.26;68.45
62779;BME280;48821;48.796;2.396;2023-03-18T02:48:05;100770.25;;;12.25;68.63
62779;BME280;48821;48.796;2.396;2023-03-18T02:49:18;100767.63;;;12.25;68.88
62779;BME280;48821;48.796;2.396;2023-03-18T02:50:29;100769.41;;;12.25;68.98
62779;BME280;48821;48.796;2.396;2023-03-18T02:51:40;100774.66;;;12.25;68.98
62779;BME280;48821;48.796;2.396;2023-03-18T02:52:51;100770.34;;;12.24;68.76
62779;BME280;48821;48.796;2.396;2023-03-18T02:54:08;100777.25;;;12.26;68.70
62779;BME280;48821;48.796;2.396;2023-03-18T02:55:22;100772.91;;;12.25;69.38
62779;BME280;48821;48.796;2.396;2023-03-18T02:56:33;100781.66;;;12.26;69.00
62779;BME280;48821;48.796;2.396;2023-03-18T02:57:44;100779.91;;;12.26;69.21
62779;BME280;48821;48.796;2.396;2023-03-18T02:58:55;100781.59;;;12.27;69.26
62779;BME280;48821;48.796;2.396;2023-03-18T03:00:06;100785.16;;;12.26;69.20
62779;BME280;48821;48.796;2.396;2023-03-18T03:01:17;100784.22;;;12.27;69.05
62779;BME280;48821;48.796;2.396;2023-03-18T03:02:29;100779.81;;;12.28;69.56
62779;BME280;48821;48.796;2.396;2023-03-18T03:03:40;100784.22;;;12.27;69.01
62779;BME280;48821;48.796;2.396;2023-03-18T03:04:51;100785.16;;;12.26;69.10
62779;BME280;48821;48.796;2.396;2023-03-18T03:06:03;100783.41;;;12.27;68.99
62779;BME280;48821;48.796;2.396;2023-03-18T03:07:14;100781.59;;;12.27;69.48
62779;BME280;48821;48.796;2.396;2023-03-18T03:08:26;100771.91;;;12.28;69.25
62779;BME280;48821;48.796;2.396;2023-03-18T03:09:37;100773.66;;;12.29;68.93
62779;BME280;48821;48.796;2.396;2023-03-18T03:10:48;100773.66;;;12.29;69.03
62779;BME280;48821;48.796;2.396;2023-03-18T03:12:00;100780.69;;;12.29;68.98
62779;BME280;48821;48.796;2.396;2023-03-18T03:13:11;100778.84;;;12.31;69.10
62779;BME280;48821;48.796;2.396;2023-03-18T03:14:23;100774.44;;;12.31;69.00
62779;BME280;48821;48.796;2.396;2023-03-18T03:15:35;100777.94;;;12.32;69.20
62779;BME280;48821;48.796;2.396;2023-03-18T03:16:46;100779.63;;;12.33;69.24
62779;BME280;48821;48.796;2.396;2023-03-18T03:17:58;100776.13;;;12.32;68.81
62779;BME280;48821;48.796;2.396;2023-03-18T03:19:09;100779.59;;;12.34;69.18
62779;BME280;48821;48.796;2.396;2023-03-18T03:20:20;100776.09;;;12.34;69.07
62779;BME280;48821;48.796;2.396;2023-03-18T03:21:33;100784.88;;;12.34;69.07
62779;BME280;48821;48.796;2.396;2023-03-18T03:22:45;100779.59;;;12.34;69.29
62779;BME280;48821;48.796;2.396;2023-03-18T03:23:56;100775.16;;;12.35;69.38
62779;BME280;48821;48.796;2.396;2023-03-18T03:25:09;100786.56;;;12.35;69.23
62779;BME280;48821;48.796;2.396;2023-03-18T03:26:22;100785.69;;;12.35;69.34
62779;BME280;48821;48.796;2.396;2023-03-18T03:27:32;100790.94;;;12.36;69.17
62779;BME280;48821;48.796;2.396;2023-03-18T03:28:43;100796.13;;;12.38;69.31
62779;BME280;48821;48.796;2.396;2023-03-18T03:29:54;100783.03;;;12.36;69.13
62779;BME280;48821;48.796;2.396;2023-03-18T03:31:06;100784.72;;;12.37;69.25
62779;BME280;48821;48.796;2.396;2023-03-18T03:32:18;100776.78;;;12.39;69.17
62779;BME280;48821;48.796;2.396;2023-03-18T03:33:28;100775.91;;;12.38;69.32
62779;BME280;48821;48.796;2.396;2023-03-18T03:34:39;100770.63;;;12.38;69.34
62779;BME280;48821;48.796;2.396;2023-03-18T03:35:51;100778.53;;;12.38;69.54
62779;BME280;48821;48.796;2.396;2023-03-18T03:37:01;100778.47;;;12.40;69.31
62779;BME280;48821;48.796;2.396;2023-03-18T03:38:13;100781.97;;;12.41;69.28
62779;BME280;48821;48.796;2.396;2023-03-18T03:39:24;100776.69;;;12.41;69.11
62779;BME280;48821;48.796;2.396;2023-03-18T03:40:35;100784.59;;;12.41;69.40
62779;BME280;48821;48.796;2.396;2023-03-18T03:41:46;100782.88;;;12.40;69.08
62779;BME280;48821;48.796;2.396;2023-03-18T03:42:57;100788.13;;;12.41;69.19
62779;BME280;48821;48.796;2.396;2023-03-18T03:44:08;100779.34;;;12.41;69.10
62779;BME280;48821;48.796;2.396;2023-03-18T03:45:19;100787.25;;;12.41;69.16
62779;BME280;48821;48.796;2.396;2023-03-18T03:46:30;100788.97;;;12.42;69.27
62779;BME280;48821;48.796;2.396;2023-03-18T03:47:42;100789.81;;;12.42;69.50
62779;BME280;48821;48.796;2.396;2023-03-18T03:48:53;100788.13;;;12.41;69.56
62779;BME280;48821;48.796;2.396;2023-03-18T03:50:04;100787.19;;;12.42;69.42
62779;BME280;48821;48.796;2.396;2023-03-18T03:51:16;100790.66;;;12.43;69.13
62779;BME280;48821;48.796;2.396;2023-03-18T03:52:29;100788.03;;;12.43;69.30
62779;BME280;48821;48.796;2.396;2023-03-18T03:53:42;100789.78;;;12.44;69.25
62779;BME280;48821;48.796;2.396;2023-03-18T03:54:55;100797.69;;;12.44;69.10
62779;BME280;48821;48.796;2.396;2023-03-18T03:56:07;100800.31;;;12.44;69.13
62779;BME280;48821;48.796;2.396;2023-03-18T03:57:18;100800.31;;;12.44;69.44
62779;BME280;48821;48.796;2.396;2023-03-18T03:58:29;100799.38;;;12.45;69.15
62779;BME280;48821;48.796;2.396;2023-03-18T03:59:41;100802.00;;;12.45;69.59
62779;BME280;48821;48.796;2.396;2023-03-18T04:00:51;100804.66;;;12.45;69.47
62779;BME280;48821;48.796;2.396;2023-03-18T04:02:02;100809.00;;;12.46;69.33
62779;BME280;48821;48.796;2.396;2023-03-18T04:03:14;100809.00;;;12.46;69.50
62779;BME280;48821;48.796;2.396;2023-03-18T04:04:25;100814.28;;;12.46;69.60
62779;BME280;48821;48.796;2.396;2023-03-18T04:05:36;100808.16;;;12.45;69.24
62779;BME280;48821;48.796;2.396;2023-03-18T04:06:47;100808.16;;;12.45;69.58
62779;BME280;48821;48.796;2.396;2023-03-18T04:07:58;100808.16;;;12.45;69.26
62779;BME280;48821;48.796;2.396;2023-03-18T04:09:12;100804.66;;;12.45;69.47
62779;BME280;48821;48.796;2.396;2023-03-18T04:10:22;100813.41;;;12.45;69.49
62779;BME280;48821;48.796;2.396;2023-03-18T04:11:33;100807.28;;;12.45;69.41
62779;BME280;48821;48.796;2.396;2023-03-18T04:12:45;100801.09;;;12.46;69.61
62779;BME280;48821;48.796;2.396;2023-03-18T04:13:56;100806.38;;;12.46;69.64
62779;BME280;48821;48.796;2.396;2023-03-18T04:15:08;100809.88;;;12.46;69.71
62779;BME280;48821;48.796;2.396;2023-03-18T04:16:18;100804.59;;;12.46;69.40
62779;BME280;48821;48.796;2.396;2023-03-18T04:17:30;100799.34;;;12.46;69.49
62779;BME280;48821;48.796;2.396;2023-03-18T04:18:40;100802.84;;;12.47;69.49
62779;BME280;48821;48.796;2.396;2023-03-18T04:19:51;100800.19;;;12.47;69.60
62779;BME280;48821;48.796;2.396;2023-03-18T04:21:06;100800.19;;;12.47;69.51
62779;BME280;48821;48.796;2.396;2023-03-18T04:22:18;100804.53;;;12.48;69.40
62779;BME280;48821;48.796;2.396;2023-03-18T04:23:31;100801.91;;;12.48;69.47
62779;BME280;48821;48.796;2.396;2023-03-18T04:24:45;100799.25;;;12.48;69.70
62779;BME280;48821;48.796;2.396;2023-03-18T04:25:56;100801.09;;;12.46;69.87
62779;BME280;48821;48.796;2.396;2023-03-18T04:27:07;100805.47;;;12.47;69.38
62779;BME280;48821;48.796;2.396;2023-03-18T04:28:18;100806.31;;;12.47;69.57
62779;BME280;48821;48.796;2.396;2023-03-18T04:29:29;100811.56;;;12.47;69.65
62779;BME280;48821;48.796;2.396;2023-03-18T04:30:40;100810.75;;;12.47;69.63
62779;BME280;48821;48.796;2.396;2023-03-18T04:31:51;100809.88;;;12.46;69.31
62779;BME280;48821;48.796;2.396;2023-03-18T04:33:02;100806.38;;;12.46;69.75
62779;BME280;48821;48.796;2.396;2023-03-18T04:34:13;100808.09;;;12.47;69.78
62779;BME280;48821;48.796;2.396;2023-03-18T04:35:24;100805.47;;;12.47;69.71
62779;BME280;48821;48.796;2.396;2023-03-18T04:36:35;100800.19;;;12.47;69.65
62779;BME280;48821;48.796;2.396;2023-03-18T04:37:46;100800.19;;;12.47;69.60
62779;BME280;48821;48.796;2.396;2023-03-18T04:38:57;100800.25;;;12.45;69.65
62779;BME280;48821;48.796;2.396;2023-03-18T04:40:08;100802.84;;;12.47;69.83
62779;BME280;48821;48.796;2.396;2023-03-18T04:41:20;100809.00;;;12.46;69.40
62779;BME280;48821;48.796;2.396;2023-03-18T04:42:31;100816.00;;;12.47;69.58
62779;BME280;48821;48.796;2.396;2023-03-18T04:43:42;100821.28;;;12.47;69.51
62779;BME280;48821;48.796;2.396;2023-03-18T04:44:53;100819.56;;;12.46;69.45
62779;BME280;48821;48.796;2.396;2023-03-18T04:46:04;100821.28;;;12.47;69.64
62779;BME280;48821;48.796;2.396;2023-03-18T04:47:15;100826.56;;;12.47;69.31
62779;BME280;48821;48.796;2.396;2023-03-18T04:48:26;100823.94;;;12.47;69.91
62779;BME280;48821;48.796;2.396;2023-03-18T04:49:37;100829.19;;;12.47;70.19
62779;BME280;48821;48.796;2.396;2023-03-18T04:50:48;100830.03;;;12.47;69.62
62779;BME280;48821;48.796;2.396;2023-03-18T04:52:00;100824.81;;;12.46;69.68
62779;BME280;48821;48.796;2.396;2023-03-18T04:53:11;100824.81;;;12.46;69.95
62779;BME280;48821;48.796;2.396;2023-03-18T04:54:22;100826.56;;;12.47;69.87
62779;BME280;48821;48.796;2.396;2023-03-18T04:55:33;100822.19;;;12.46;69.92
62779;BME280;48821;48.796;2.396;2023-03-18T04:56:45;100816.00;;;12.47;69.51
62779;BME280;48821;48.796;2.396;2023-03-18T04:57:58;100822.97;;;12.48;69.45
62779;BME280;48821;48.796;2.396;2023-03-18T04:59:09;100816.84;;;12.47;69.83
62779;BME280;48821;48.796;2.396;2023-03-18T05:00:20;100815.94;;;12.48;69.79
62779;BME280;48821;48.796;2.396;2023-03-18T05:01:31;100815.94;;;12.48;69.93
62779;BME280;48821;48.796;2.396;2023-03-18T05:02:43;100817.72;;;12.48;69.48
62779;BME280;48821;48.796;2.396;2023-03-18T05:03:54;100808.94;;;12.47;69.80
62779;BME280;48821;48.796;2.396;2023-03-18T05:05:07;100812.44;;;12.48;69.86
62779;BME280;48821;48.796;2.396;2023-03-18T05:06:23;100810.66;;;12.48;69.97
62779;BME280;48821;48.796;2.396;2023-03-18T05:07:37;100808.03;;;12.48;69.85
62779;BME280;48821;48.796;2.396;2023-03-18T05:08:48;100808.91;;;12.49;69.88
62779;BME280;48821;48.796;2.396;2023-03-18T05:09:59;100810.66;;;12.48;69.89
62779;BME280;48821;48.796;2.396;2023-03-18T05:11:10;100804.53;;;12.48;69.94
62779;BME280;48821;48.796;2.396;2023-03-18T05:12:21;100805.41;;;12.48;69.82
62779;BME280;48821;48.796;2.396;2023-03-18T05:13:31;100810.59;;;12.50;69.86
62779;BME280;48821;48.796;2.396;2023-03-18T05:14:43;100799.19;;;12.49;69.70
62779;BME280;48821;48.796;2.396;2023-03-18T05:15:53;100804.47;;;12.49;69.78
62779;BME280;48821;48.796;2.396;2023-03-18T05:17:04;100807.06;;;12.51;70.00
62779;BME280;48821;48.796;2.396;2023-03-18T05:18:15;100799.19;;;12.49;69.87
62779;BME280;48821;48.796;2.396;2023-03-18T05:19:26;100799.19;;;12.49;69.71
62779;BME280;48821;48.796;2.396;2023-03-18T05:20:37;100805.31;;;12.50;70.08
62779;BME280;48821;48.796;2.396;2023-03-18T05:21:48;100792.16;;;12.50;69.84
62779;BME280;48821;48.796;2.396;2023-03-18T05:22:59;100799.19;;;12.49;69.90
62779;BME280;48821;48.796;2.396;2023-03-18T05:24:11;100804.47;;;12.49;70.05
62779;BME280;48821;48.796;2.396;2023-03-18T05:25:22;100798.34;;;12.49;69.71
62779;BME280;48821;48.796;2.396;2023-03-18T05:26:33;100801.81;;;12.49;69.70
62779;BME280;48821;48.796;2.396;2023-03-18T05:27:46;100793.09;;;12.49;69.84
62779;BME280;48821;48.796;2.396;2023-03-18T05:28:57;100801.91;;;12.48;69.35
62779;BME280;48821;48.796;2.396;2023-03-18T05:30:09;100794.06;;;12.46;69.63
62779;BME280;48821;48.796;2.396;2023-03-18T05:31:20;100793.19;;;12.46;69.40
62779;BME280;48821;48.796;2.396;2023-03-18T05:32:32;100794.09;;;12.45;69.58
62779;BME280;48821;48.796;2.396;2023-03-18T05:33:42;100795.03;;;12.44;69.22
62779;BME280;48821;48.796;2.396;2023-03-18T05:34:53;100793.31;;;12.43;69.35
62779;BME280;48821;48.796;2.396;2023-03-18T05:36:04;100790.75;;;12.41;69.35
62779;BME280;48821;48.796;2.396;2023-03-18T05:37:17;100787.31;;;12.39;69.06
62779;BME280;48821;48.796;2.396;2023-03-18T05:38:28;100790.00;;;12.37;69.29
62779;BME280;48821;48.796;2.396;2023-03-18T05:39:39;100791.84;;;12.35;69.44
62779;BME280;48821;48.796;2.396;2023-03-18T05:40:50;100798.94;;;12.33;69.02
62779;BME280;48821;48.796;2.396;2023-03-18T05:42:00;100797.22;;;12.32;69.14
62779;BME280;48821;48.796;2.396;2023-03-18T05:43:11;100799.06;;;12.30;68.93
62779;BME280;48821;48.796;2.396;2023-03-18T05:44:23;100801.78;;;12.29;69.21
62779;BME280;48821;48.796;2.396;2023-03-18T05:45:34;100792.13;;;12.27;69.05
62779;BME280;48821;48.796;2.396;2023-03-18T05:46:45;100801.03;;;12.25;69.28
62779;BME280;48821;48.796;2.396;2023-03-18T05:47:56;100798.38;;;12.25;68.99
62779;BME280;48821;48.796;2.396;2023-03-18T05:49:07;100802.00;;;12.22;69.06
62779;BME280;48821;48.796;2.396;2023-03-18T05:50:35;100802.06;;;12.21;69.28
62779;BME280;48821;48.796;2.396;2023-03-18T05:51:47;100796.00;;;12.19;69.20
62779;BME280;48821;48.796;2.396;2023-03-18T05:53:01;100796.91;;;12.18;69.12
62779;BME280;48821;48.796;2.396;2023-03-18T05:54:12;100796.97;;;12.16;69.26
62779;BME280;48821;48.796;2.396;2023-03-18T05:55:23;100797.06;;;12.14;69.28
62779;BME280;48821;48.796;2.396;2023-03-18T05:56:36;100803.22;;;12.13;69.45
62779;BME280;48821;48.796;2.396;2023-03-18T05:57:46;100801.47;;;12.12;69.44
62779;BME280;48821;48.796;2.396;2023-03-18T05:58:58;100792.75;;;12.10;69.40
62779;BME280;48821;48.796;2.396;2023-03-18T06:00:09;100800.66;;;12.10;69.38
62779;BME280;48821;48.796;2.396;2023-03-18T06:01:20;100799.84;;;12.10;69.49
62779;BME280;48821;48.796;2.396;2023-03-18T06:02:31;100796.44;;;12.06;69.35
62779;BME280;48821;48.796;2.396;2023-03-18T06:03:44;100792.91;;;12.07;69.37
62779;BME280;48821;48.796;2.396;2023-03-18T06:04:56;100796.44;;;12.06;69.70
62779;BME280;48821;48.796;2.396;2023-03-18T06:06:08;100794.72;;;12.05;69.66
62779;BME280;48821;48.796;2.396;2023-03-18T06:07:19;100794.72;;;12.05;69.71
62779;BME280;48821;48.796;2.396;2023-03-18T06:08:30;100796.50;;;12.04;69.69
62779;BME280;48821;48.796;2.396;2023-03-18T06:09:41;100790.38;;;12.04;69.50
62779;BME280;48821;48.796;2.396;2023-03-18T06:10:52;100796.50;;;12.04;69.53
62779;BME280;48821;48.796;2.396;2023-03-18T06:12:03;100790.38;;;12.04;69.52
62779;BME280;48821;48.796;2.396;2023-03-18T06:13:14;100790.38;;;12.04;69.23
62779;BME280;48821;48.796;2.396;2023-03-18T06:14:25;100792.16;;;12.03;69.42
62779;BME280;48821;48.796;2.396;2023-03-18T06:15:39;100799.19;;;12.03;69.76
62779;BME280;48821;48.796;2.396;2023-03-18T06:16:49;100788.66;;;12.03;69.79
62779;BME280;48821;48.796;2.396;2023-03-18T06:18:00;100793.91;;;12.03;69.66
62779;BME280;48821;48.796;2.396;2023-03-18T06:19:12;100787.81;;;12.02;69.60
62779;BME280;48821;48.796;2.396;2023-03-18T06:20:22;100784.31;;;12.02;69.95
62779;BME280;48821;48.796;2.396;2023-03-18T06:21:33;100779.94;;;12.01;69.90